Flight Track Log - Related Links

Times and Time Zones

All times are in EDT time to prevent confusion due to time zone crossing. See the N101MA flight status page for this flight to view local times or setup timezone preferences in your user account.

Time Position Orientation Groundspeed Altitude Reporting Facility
EDT Latitude Longitude Course Direction KTS MPH feet Rate Location/Type
Sun 06:20:04 PM 44.8203 -70.7781 205° Southwest 175 201 6,100  Level Boston Center
Sun 06:21:04 PM 44.7789 -70.7967 198° South 170 196 7,000 850 Climbing Boston Center
Sun 06:22:04 PM 44.7436 -70.8064 191° South 157 181 7,800 800 Climbing Boston Center
Sun 06:23:04 PM 44.7042 -70.8250 199° South 146 168 8,600 450 Climbing Boston Center
Sun 06:24:04 PM 44.6608 -70.8436 197° South 151 174 8,700 50 Climbing Boston Center
Sun 06:25:04 PM 44.6089 -70.8625 195° South 174 200 8,700  Level Boston Center
Sun 06:26:04 PM 44.5592 -70.8844 197° South 187 215 8,700  Level Boston Center
Sun 06:27:04 PM 44.5072 -70.9031 194° South 187 215 8,700  Level Boston Center
Sun 06:28:04 PM 44.4536 -70.9308 200° South 187 215 8,700 -50 Level Boston Center
Sun 06:29:04 PM 44.4100 -70.9581 204° Southwest 187 215 8,600  Descending Boston Center
Sun 06:30:16 PM 44.3606 -70.9942 208° Southwest 192 221 8,700 45 Climbing Boston Center
Sun 06:31:16 PM 44.3047 -71.0303 205° Southwest 192 221 8,700 -50 Level Boston Center
Sun 06:32:16 PM 44.2594 -71.0633 208° Southwest 192 221 8,600 -50 Descending Boston Center
Sun 06:33:16 PM 44.2158 -71.0933 206° Southwest 187 215 8,600  Level Boston Center
Sun 06:34:16 PM 44.1744 -71.1144 200° South 182 209 8,600  Level Boston Center
Sun 06:35:16 PM 44.1206 -71.1358 196° South 177 204 8,600  Level Boston Center
Sun 06:36:28 PM 44.0769 -71.1542 197° South 182 209 8,600 45 Level Boston Center
Sun 06:37:28 PM 44.0106 -71.1728 191° South 182 209 8,700 50 Climbing Boston Center
Sun 06:38:28 PM 43.9628 -71.1911 195° South 182 209 8,700 -50 Level Boston Center
Sun 06:39:28 PM 43.9131 -71.2094 195° South 182 209 8,600 -50 Descending Boston Center
Sun 06:40:28 PM 43.8653 -71.2278 195° South 182 209 8,600  Level Boston Center
Sun 06:41:40 PM 43.8072 -71.2492 195° South 182 209 8,600  Level Boston Center
Sun 06:42:40 PM 43.7594 -71.2672 195° South 182 209 8,600  Level Boston Center
Sun 06:43:40 PM 43.7094 -71.2856 195° South 182 209 8,600  Level Boston Center
Sun 06:44:40 PM 43.6597 -71.3064 197° South 182 209 8,600  Level Boston Center
Sun 06:45:40 PM 43.6142 -71.3247 196° South 187 215 8,600  Level Boston Center
Sun 06:46:40 PM 43.5600 -71.3428 194° South 182 209 8,600  Level Boston Center
Sun 06:47:40 PM 43.5164 -71.3578 194° South 182 209 8,600  Level Boston Center
Sun 06:48:40 PM 43.4625 -71.3789 196° South 182 209 8,600  Level Boston Center
Sun 06:49:40 PM 43.4169 -71.3967 196° South 182 209 8,600 -56 Level Boston Center
Sun 06:50:28 PM 43.3667 -71.4000 183° South 184 212 8,500 -56 Descending KA90
Sun 06:51:28 PM 43.3167 -71.4333 206° Southwest 183 211 8,500  Level KA90
Sun 06:52:22 PM 43.2833 -71.4333 180° South 184 212 8,500  Level KA90
Sun 06:53:22 PM 43.2333 -71.4500 194° South 184 212 8,500  Level KA90
Sun 06:54:10 PM 43.1833 -71.4667 194° South 184 212 8,500  Level KA90
Sun 06:55:17 PM 43.1333 -71.4833 194° South 185 213 8,500 45 Level KA90
Sun 06:56:22 PM 43.0833 -71.5000 194° South 181 208 8,600  Climbing KA90
Sun 06:57:23 PM 43.0333 -71.5167 194° South 184 212 8,500 -50 Descending KA90
Sun 06:58:23 PM 42.9833 -71.5333 194° South 186 214 8,500  Level KA90
Sun 06:59:23 PM 42.9333 -71.5500 194° South 186 214 8,500  Level KA90
Sun 07:00:23 PM 42.8833 -71.5667 194° South 185 213 8,500  Level KA90
Sun 07:01:16 PM 42.8369 -71.5906 201° Southwest 187 215 8,500  Level Boston Center
Sun 07:02:16 PM 42.7869 -71.6056 192° South 182 209 8,500  Level Boston Center
Sun 07:03:28 PM 42.7372 -71.6258 197° South 182 209 8,500  Level Boston Center
Sun 07:04:28 PM 42.6769 -71.6467 194° South 182 209 8,500 -50 Level Boston Center
Sun 07:05:28 PM 42.6311 -71.6642 196° South 188 216 8,400 -50 Descending Boston Center
Sun 07:06:28 PM 42.5750 -71.6844 195° South 188 216 8,400  Level Boston Center
Sun 07:07:28 PM 42.5292 -71.6992 193° South 182 209 8,400  Level Boston Center
Sun 07:08:28 PM 42.4733 -71.7281 201° Southwest 187 215 8,400  Level Boston Center
Sun 07:09:29 PM 42.4211 -71.7453 194° South 188 216 8,400  Level Boston Center
Sun 07:10:28 PM 42.3733 -71.7544 188° South 182 209 8,400  Level Boston Center
Sun 07:11:28 PM 42.3214 -71.7717 194° South 182 209 8,400  Level Boston Center
Sun 07:12:28 PM 42.2714 -71.7919 197° South 182 209 8,400  Level Boston Center
Sun 07:13:28 PM 42.2194 -71.8122 196° South 182 209 8,400  Level Boston Center
Sun 07:14:40 PM 42.1569 -71.8381 197° South 188 216 8,400  Level Boston Center
Sun 07:15:28 PM 42.1175 -71.8467 189° South 187 215 8,400  Level Boston Center
Sun 07:16:41 PM 42.0550 -71.8725 197° South 190 219 8,400  Level Boston Center
Sun 07:17:28 PM 42.0178 -71.8839 193° South 187 215 8,400  Level Boston Center
Sun 07:18:16 PM 41.9739 -71.9011 196° South 189 217 8,400 53 Level Boston Center
Sun 07:19:22 PM 41.9178 -71.9183 193° South 188 216 8,500 45 Climbing Boston Center
Sun 07:20:28 PM 41.8742 -71.9356 196° South 187 215 8,500  Level Boston Center
Sun 07:21:24 PM 41.8136 -71.9556 194° South 191 220 8,500  Level Boston Center
Sun 07:22:28 PM 41.7658 -71.9725 195° South 187 215 8,500  Level Boston Center
Sun 07:23:28 PM 41.7117 -71.9925 195° South 187 215 8,500  Level Boston Center
Sun 07:24:28 PM 41.6703 -72.0094 197° South 187 215 8,500 -300 Level Boston Center
Sun 07:25:28 PM 41.6078 -72.0319 195° South 187 215 7,900 -600 Descending Boston Center
Sun 07:26:28 PM 41.5556 -72.0461 191° South 202 232 7,300 -590 Descending Boston Center
Sun 07:27:30 PM 41.4892 -72.0689 194° South 216 249 6,700 -650 Descending Boston Center
Sun 07:28:28 PM 41.4411 -72.0883 197° South 214 246 6,000 -712 Descending Boston Center
Sun 07:29:28 PM 41.3786 -72.1108 195° South 219 252 5,300 -700 Descending Boston Center
Sun 07:30:28 PM 41.3289 -72.1306 197° South 219 252 4,600 -672 Descending Boston Center
Sun 07:31:33 PM 41.2664 -72.1611 200° South 194 223 3,900 -700 Descending Boston Center
Sun 07:32:28 PM 41.2206 -72.1725 191° South 202 232 3,200 -730 Descending Boston Center
Sun 07:33:28 PM 41.1683 -72.1892 194° South 202 232 2,500 -496 Descending Boston Center
Sun 07:34:29 PM 41.1225 -72.2058 195° South 202 232 2,200 -295 Descending Boston Center
Sun 07:36:00 PM 41.0390 -72.2296 207° Southwest  Level FlightAware Approximate
Sun 07:43:00 PM 40.9594 -72.2517 56° Northeast  Level Estimated
Sun 07:44:00 PM 40.9594 -72.2517 56° Northeast  Level Estimated
Sun 07:45:00 PM 40.9594 -72.2517 56° Northeast  Level Estimated
Sun 07:46:00 PM 40.9594 -72.2517 56° Northeast  Level Estimated
Sun 07:47:00 PM 40.9594 -72.2517 56° Northeast  Level Estimated
Sun 07:48:00 PM 40.9594 -72.2517 56° Northeast  Level Estimated
Sun 07:49:00 PM 40.9594 -72.2517 56° Northeast  Level Estimated
Sun 07:50:00 PM 40.9594 -72.2517 56° Northeast  Level Estimated
Sun 07:51:00 PM 40.9594 -72.2517 56° Northeast  Level Estimated
Sun 07:52:00 PM 40.9594 -72.2517 56° Northeast  Level Estimated
Sun 07:53:00 PM 40.9594 -72.2517 56° Northeast  Level Estimated
Sun 07:54:00 PM 40.9594 -72.2517 56° Northeast  Level Estimated
Sun 07:55:00 PM 40.9594 -72.2517 56° Northeast  Level Estimated
Sun 07:56:00 PM 40.9594 -72.2517 56° Northeast  Level Estimated
Sun 07:57:00 PM 40.9594 -72.2517 56° Northeast  Level Estimated
Sun 07:58:00 PM 40.9594 -72.2517 56° Northeast  Level Estimated
Sun 07:59:00 PM 40.9594 -72.2517 56° Northeast  Level Estimated

Login

Don't have an account? Register now (free) for customized features, flight alerts, and more!